Terminal Aerodrome Forecast
Issued by NWS Flagstaff, AZ

Home | Current Version | Previous Version | Text Only | Print | Product List | Glossary On
Versions: 1 2 3 4 5 6 7 8 9 10 11 12 13
000
FTUS45 KFGZ 252336
TAFINW
TAF
KINW 252336Z 2600/2624 VRB06KT P6SM SCT100
      TEMPO 2600/2602 VRB15G30KT 5SM -TSRA BKN080CB
     FM260200 28010KT P6SM BKN110
     FM261800 23010G15KT P6SM BKN060
      TEMPO 2621/2624 VRB10G20KT 5SM -TSRA BKN050CB=

USA.gov is the U.S. government's official web portal to all federal, state and local government web resources and services.